sensor_id;sensor_type;location;lat;lon;timestamp;P1;durP1;ratioP1;P2;durP2;ratioP2
57217;SDS011;43078;52.972;6.482;2023-06-19T00:00:44;8.15;;;5.72;;
57217;SDS011;43078;52.972;6.482;2023-06-19T00:03:10;7.60;;;5.50;;
57217;SDS011;43078;52.972;6.482;2023-06-19T00:05:35;7.32;;;5.43;;
57217;SDS011;43078;52.972;6.482;2023-06-19T00:08:01;6.70;;;5.60;;
57217;SDS011;43078;52.972;6.482;2023-06-19T00:10:28;7.78;;;5.68;;
57217;SDS011;43078;52.972;6.482;2023-06-19T00:12:54;8.00;;;5.40;;
57217;SDS011;43078;52.972;6.482;2023-06-19T00:15:19;6.68;;;5.43;;
57217;SDS011;43078;52.972;6.482;2023-06-19T00:17:45;6.78;;;5.53;;
57217;SDS011;43078;52.972;6.482;2023-06-19T00:20:10;7.28;;;5.38;;
57217;SDS011;43078;52.972;6.482;2023-06-19T00:22:38;7.43;;;5.68;;
57217;SDS011;43078;52.972;6.482;2023-06-19T00:25:04;6.75;;;5.47;;
57217;SDS011;43078;52.972;6.482;2023-06-19T00:27:30;7.55;;;5.85;;
57217;SDS011;43078;52.972;6.482;2023-06-19T00:29:55;7.32;;;5.40;;
57217;SDS011;43078;52.972;6.482;2023-06-19T00:32:26;7.47;;;5.40;;
57217;SDS011;43078;52.972;6.482;2023-06-19T00:34:53;6.78;;;5.57;;
57217;SDS011;43078;52.972;6.482;2023-06-19T00:37:19;6.95;;;5.43;;
57217;SDS011;43078;52.972;6.482;2023-06-19T00:39:44;7.20;;;5.43;;
57217;SDS011;43078;52.972;6.482;2023-06-19T00:42:10;7.45;;;5.50;;
57217;SDS011;43078;52.972;6.482;2023-06-19T00:44:36;7.32;;;5.47;;
57217;SDS011;43078;52.972;6.482;2023-06-19T00:47:02;8.13;;;5.75;;
57217;SDS011;43078;52.972;6.482;2023-06-19T00:49:29;7.22;;;5.63;;
57217;SDS011;43078;52.972;6.482;2023-06-19T00:51:55;7.45;;;5.07;;
57217;SDS011;43078;52.972;6.482;2023-06-19T00:54:21;9.82;;;5.15;;
57217;SDS011;43078;52.972;6.482;2023-06-19T00:56:47;6.43;;;5.22;;
57217;SDS011;43078;52.972;6.482;2023-06-19T00:59:17;7.57;;;5.28;;
57217;SDS011;43078;52.972;6.482;2023-06-19T01:01:44;7.25;;;5.18;;
57217;SDS011;43078;52.972;6.482;2023-06-19T01:04:10;6.97;;;5.65;;
57217;SDS011;43078;52.972;6.482;2023-06-19T01:06:56;7.20;;;5.55;;
57217;SDS011;43078;52.972;6.482;2023-06-19T01:09:35;6.28;;;5.22;;
57217;SDS011;43078;52.972;6.482;2023-06-19T01:12:28;8.00;;;5.43;;
57217;SDS011;43078;52.972;6.482;2023-06-19T01:14:58;7.25;;;5.55;;
57217;SDS011;43078;52.972;6.482;2023-06-19T01:17:41;7.18;;;5.60;;
57217;SDS011;43078;52.972;6.482;2023-06-19T01:20:07;6.22;;;5.10;;
57217;SDS011;43078;52.972;6.482;2023-06-19T01:22:36;7.30;;;5.35;;
57217;SDS011;43078;52.972;6.482;2023-06-19T01:25:02;7.80;;;5.85;;
57217;SDS011;43078;52.972;6.482;2023-06-19T01:27:29;6.85;;;5.38;;
57217;SDS011;43078;52.972;6.482;2023-06-19T01:29:55;7.68;;;5.28;;
57217;SDS011;43078;52.972;6.482;2023-06-19T01:32:33;6.35;;;4.72;;
57217;SDS011;43078;52.972;6.482;2023-06-19T01:35:12;7.68;;;5.55;;
57217;SDS011;43078;52.972;6.482;2023-06-19T01:37:40;8.05;;;5.65;;
57217;SDS011;43078;52.972;6.482;2023-06-19T01:40:08;6.50;;;5.10;;
57217;SDS011;43078;52.972;6.482;2023-06-19T01:42:37;8.45;;;5.85;;
57217;SDS011;43078;52.972;6.482;2023-06-19T01:45:04;6.68;;;5.35;;
57217;SDS011;43078;52.972;6.482;2023-06-19T01:47:30;8.30;;;6.05;;
57217;SDS011;43078;52.972;6.482;2023-06-19T01:49:56;8.15;;;5.68;;
57217;SDS011;43078;52.972;6.482;2023-06-19T01:52:23;8.38;;;6.00;;
57217;SDS011;43078;52.972;6.482;2023-06-19T01:54:49;7.03;;;5.20;;
57217;SDS011;43078;52.972;6.482;2023-06-19T01:57:15;7.53;;;5.60;;
57217;SDS011;43078;52.972;6.482;2023-06-19T01:59:41;7.10;;;5.38;;
57217;SDS011;43078;52.972;6.482;2023-06-19T02:02:07;6.93;;;5.05;;
57217;SDS011;43078;52.972;6.482;2023-06-19T02:04:32;7.75;;;5.22;;
57217;SDS011;43078;52.972;6.482;2023-06-19T02:06:58;7.05;;;5.50;;
57217;SDS011;43078;52.972;6.482;2023-06-19T02:09:24;7.00;;;5.07;;
57217;SDS011;43078;52.972;6.482;2023-06-19T02:11:50;6.88;;;5.18;;
57217;SDS011;43078;52.972;6.482;2023-06-19T02:14:15;7.47;;;5.70;;
57217;SDS011;43078;52.972;6.482;2023-06-19T02:16:41;7.80;;;5.80;;
57217;SDS011;43078;52.972;6.482;2023-06-19T02:19:08;6.15;;;4.90;;
57217;SDS011;43078;52.972;6.482;2023-06-19T02:21:37;9.80;;;5.15;;
57217;SDS011;43078;52.972;6.482;2023-06-19T02:24:03;7.40;;;5.50;;
57217;SDS011;43078;52.972;6.482;2023-06-19T02:26:29;7.20;;;5.22;;
57217;SDS011;43078;52.972;6.482;2023-06-19T02:28:55;6.57;;;5.43;;
57217;SDS011;43078;52.972;6.482;2023-06-19T02:31:24;7.85;;;5.80;;
57217;SDS011;43078;52.972;6.482;2023-06-19T02:33:50;8.52;;;5.28;;
57217;SDS011;43078;52.972;6.482;2023-06-19T02:36:15;8.82;;;5.68;;
57217;SDS011;43078;52.972;6.482;2023-06-19T02:38:45;8.77;;;5.90;;
57217;SDS011;43078;52.972;6.482;2023-06-19T02:41:14;7.28;;;5.35;;
57217;SDS011;43078;52.972;6.482;2023-06-19T02:43:43;7.85;;;5.78;;
57217;SDS011;43078;52.972;6.482;2023-06-19T02:46:10;6.18;;;4.80;;
57217;SDS011;43078;52.972;6.482;2023-06-19T02:48:36;7.10;;;5.40;;
57217;SDS011;43078;52.972;6.482;2023-06-19T02:51:02;8.55;;;5.97;;
57217;SDS011;43078;52.972;6.482;2023-06-19T02:53:27;6.65;;;5.15;;
57217;SDS011;43078;52.972;6.482;2023-06-19T02:55:53;8.23;;;5.55;;
57217;SDS011;43078;52.972;6.482;2023-06-19T02:58:18;7.65;;;6.00;;
57217;SDS011;43078;52.972;6.482;2023-06-19T03:00:44;7.13;;;5.82;;
57217;SDS011;43078;52.972;6.482;2023-06-19T03:03:10;7.35;;;5.85;;
57217;SDS011;43078;52.972;6.482;2023-06-19T03:05:37;8.90;;;5.97;;
57217;SDS011;43078;52.972;6.482;2023-06-19T03:08:03;7.10;;;5.70;;
57217;SDS011;43078;52.972;6.482;2023-06-19T03:10:29;7.40;;;5.60;;
57217;SDS011;43078;52.972;6.482;2023-06-19T03:12:55;6.53;;;5.50;;
57217;SDS011;43078;52.972;6.482;2023-06-19T03:15:23;8.90;;;6.15;;
57217;SDS011;43078;52.972;6.482;2023-06-19T03:17:49;8.50;;;5.45;;
57217;SDS011;43078;52.972;6.482;2023-06-19T03:20:14;9.85;;;6.10;;
57217;SDS011;43078;52.972;6.482;2023-06-19T03:22:40;8.35;;;6.15;;
57217;SDS011;43078;52.972;6.482;2023-06-19T03:25:07;7.05;;;5.43;;
57217;SDS011;43078;52.972;6.482;2023-06-19T03:27:33;8.60;;;5.93;;
57217;SDS011;43078;52.972;6.482;2023-06-19T03:29:59;10.10;;;5.72;;
57217;SDS011;43078;52.972;6.482;2023-06-19T03:32:25;7.30;;;5.55;;
57217;SDS011;43078;52.972;6.482;2023-06-19T03:34:51;8.90;;;5.75;;
57217;SDS011;43078;52.972;6.482;2023-06-19T03:37:16;8.77;;;5.45;;
57217;SDS011;43078;52.972;6.482;2023-06-19T03:39:42;8.75;;;5.35;;
57217;SDS011;43078;52.972;6.482;2023-06-19T03:42:08;7.95;;;5.65;;
57217;SDS011;43078;52.972;6.482;2023-06-19T03:44:33;7.43;;;5.55;;
57217;SDS011;43078;52.972;6.482;2023-06-19T03:46:59;6.70;;;5.40;;
57217;SDS011;43078;52.972;6.482;2023-06-19T03:49:25;8.23;;;5.75;;
57217;SDS011;43078;52.972;6.482;2023-06-19T03:51:51;9.13;;;5.25;;
57217;SDS011;43078;52.972;6.482;2023-06-19T03:54:16;7.43;;;5.30;;
57217;SDS011;43078;52.972;6.482;2023-06-19T03:56:42;7.03;;;4.82;;
57217;SDS011;43078;52.972;6.482;2023-06-19T03:59:08;6.78;;;5.05;;
57217;SDS011;43078;52.972;6.482;2023-06-19T04:01:33;6.90;;;5.07;;
57217;SDS011;43078;52.972;6.482;2023-06-19T04:03:59;8.38;;;5.32;;
57217;SDS011;43078;52.972;6.482;2023-06-19T04:06:24;9.48;;;5.57;;
57217;SDS011;43078;52.972;6.482;2023-06-19T04:08:50;8.65;;;5.30;;
57217;SDS011;43078;52.972;6.482;2023-06-19T04:11:16;7.32;;;5.00;;
57217;SDS011;43078;52.972;6.482;2023-06-19T04:13:42;7.28;;;5.30;;
57217;SDS011;43078;52.972;6.482;2023-06-19T04:16:07;7.40;;;4.93;;
57217;SDS011;43078;52.972;6.482;2023-06-19T04:18:33;6.25;;;4.38;;
57217;SDS011;43078;52.972;6.482;2023-06-19T04:20:58;6.72;;;4.82;;
57217;SDS011;43078;52.972;6.482;2023-06-19T04:23:24;6.47;;;4.80;;
57217;SDS011;43078;52.972;6.482;2023-06-19T04:25:50;8.82;;;5.00;;
57217;SDS011;43078;52.972;6.482;2023-06-19T04:28:15;6.65;;;4.82;;
57217;SDS011;43078;52.972;6.482;2023-06-19T04:30:41;7.32;;;4.72;;
57217;SDS011;43078;52.972;6.482;2023-06-19T04:33:07;6.70;;;4.57;;
57217;SDS011;43078;52.972;6.482;2023-06-19T04:35:33;6.32;;;4.53;;
57217;SDS011;43078;52.972;6.482;2023-06-19T04:38:04;6.93;;;4.78;;
57217;SDS011;43078;52.972;6.482;2023-06-19T04:40:33;6.03;;;4.30;;
57217;SDS011;43078;52.972;6.482;2023-06-19T04:43:00;8.50;;;4.43;;
57217;SDS011;43078;52.972;6.482;2023-06-19T04:45:32;7.55;;;4.22;;
57217;SDS011;43078;52.972;6.482;2023-06-19T04:47:57;6.63;;;4.60;;
57217;SDS011;43078;52.972;6.482;2023-06-19T04:50:23;6.90;;;4.15;;
57217;SDS011;43078;52.972;6.482;2023-06-19T04:52:49;7.00;;;4.15;;
57217;SDS011;43078;52.972;6.482;2023-06-19T04:55:15;6.88;;;4.18;;
57217;SDS011;43078;52.972;6.482;2023-06-19T04:57:41;5.50;;;4.05;;
57217;SDS011;43078;52.972;6.482;2023-06-19T05:00:07;6.13;;;4.25;;
57217;SDS011;43078;52.972;6.482;2023-06-19T05:02:35;8.20;;;4.10;;
57217;SDS011;43078;52.972;6.482;2023-06-19T05:05:00;9.73;;;4.40;;
57217;SDS011;43078;52.972;6.482;2023-06-19T05:07:31;8.55;;;4.10;;
57217;SDS011;43078;52.972;6.482;2023-06-19T05:09:57;6.22;;;4.10;;
57217;SDS011;43078;52.972;6.482;2023-06-19T05:12:23;5.20;;;3.42;;
57217;SDS011;43078;52.972;6.482;2023-06-19T05:14:49;7.38;;;4.05;;
57217;SDS011;43078;52.972;6.482;2023-06-19T05:17:15;5.65;;;3.33;;
57217;SDS011;43078;52.972;6.482;2023-06-19T05:19:40;5.97;;;3.55;;
57217;SDS011;43078;52.972;6.482;2023-06-19T05:22:06;5.53;;;3.80;;
57217;SDS011;43078;52.972;6.482;2023-06-19T05:24:32;6.90;;;3.85;;
57217;SDS011;43078;52.972;6.482;2023-06-19T05:26:58;5.22;;;3.65;;
57217;SDS011;43078;52.972;6.482;2023-06-19T05:29:23;5.90;;;3.88;;
57217;SDS011;43078;52.972;6.482;2023-06-19T05:31:49;5.97;;;3.92;;
57217;SDS011;43078;52.972;6.482;2023-06-19T05:34:16;7.03;;;3.58;;
57217;SDS011;43078;52.972;6.482;2023-06-19T05:36:42;5.25;;;3.53;;
57217;SDS011;43078;52.972;6.482;2023-06-19T05:39:10;6.10;;;3.67;;
57217;SDS011;43078;52.972;6.482;2023-06-19T05:41:35;6.78;;;3.75;;
57217;SDS011;43078;52.972;6.482;2023-06-19T05:44:01;6.38;;;4.00;;
57217;SDS011;43078;52.972;6.482;2023-06-19T05:46:27;6.53;;;4.03;;
57217;SDS011;43078;52.972;6.482;2023-06-19T05:48:52;7.57;;;4.20;;
57217;SDS011;43078;52.972;6.482;2023-06-19T05:51:19;6.20;;;4.10;;
57217;SDS011;43078;52.972;6.482;2023-06-19T05:53:45;8.32;;;4.80;;
57217;SDS011;43078;52.972;6.482;2023-06-19T05:56:11;8.38;;;4.45;;
57217;SDS011;43078;52.972;6.482;2023-06-19T05:58:37;6.07;;;4.60;;
57217;SDS011;43078;52.972;6.482;2023-06-19T06:01:04;8.20;;;4.82;;
57217;SDS011;43078;52.972;6.482;2023-06-19T06:03:29;7.90;;;4.30;;
57217;SDS011;43078;52.972;6.482;2023-06-19T06:05:55;10.18;;;4.13;;
57217;SDS011;43078;52.972;6.482;2023-06-19T06:08:28;7.35;;;4.10;;
57217;SDS011;43078;52.972;6.482;2023-06-19T06:10:54;8.77;;;4.45;;
57217;SDS011;43078;52.972;6.482;2023-06-19T06:13:20;6.97;;;4.15;;
57217;SDS011;43078;52.972;6.482;2023-06-19T06:15:45;8.25;;;4.15;;
57217;SDS011;43078;52.972;6.482;2023-06-19T06:18:11;8.60;;;4.30;;
57217;SDS011;43078;52.972;6.482;2023-06-19T06:20:36;7.80;;;4.22;;
57217;SDS011;43078;52.972;6.482;2023-06-19T06:23:02;10.32;;;3.85;;
57217;SDS011;43078;52.972;6.482;2023-06-19T06:25:28;6.75;;;3.88;;
57217;SDS011;43078;52.972;6.482;2023-06-19T06:27:54;9.13;;;4.03;;
57217;SDS011;43078;52.972;6.482;2023-06-19T06:30:19;5.70;;;3.72;;
57217;SDS011;43078;52.972;6.482;2023-06-19T06:32:45;6.97;;;4.18;;
57217;SDS011;43078;52.972;6.482;2023-06-19T06:35:10;7.88;;;4.80;;
57217;SDS011;43078;52.972;6.482;2023-06-19T06:37:36;7.60;;;4.97;;
57217;SDS011;43078;52.972;6.482;2023-06-19T06:40:02;10.15;;;5.57;;
57217;SDS011;43078;52.972;6.482;2023-06-19T06:42:33;6.57;;;4.80;;
57217;SDS011;43078;52.972;6.482;2023-06-19T06:44:58;8.70;;;6.63;;
57217;SDS011;43078;52.972;6.482;2023-06-19T06:47:24;11.38;;;8.20;;
57217;SDS011;43078;52.972;6.482;2023-06-19T06:49:49;11.20;;;7.75;;
57217;SDS011;43078;52.972;6.482;2023-06-19T06:52:15;10.85;;;8.25;;
57217;SDS011;43078;52.972;6.482;2023-06-19T06:54:41;10.07;;;8.30;;
57217;SDS011;43078;52.972;6.482;2023-06-19T06:57:06;14.40;;;8.88;;
57217;SDS011;43078;52.972;6.482;2023-06-19T06:59:32;12.50;;;9.20;;
57217;SDS011;43078;52.972;6.482;2023-06-19T07:01:57;11.07;;;9.13;;
57217;SDS011;43078;52.972;6.482;2023-06-19T07:04:23;15.30;;;10.88;;
57217;SDS011;43078;52.972;6.482;2023-06-19T07:06:49;12.98;;;9.80;;
57217;SDS011;43078;52.972;6.482;2023-06-19T07:09:14;18.70;;;12.88;;
57217;SDS011;43078;52.972;6.482;2023-06-19T07:11:40;14.18;;;9.68;;
57217;SDS011;43078;52.972;6.482;2023-06-19T07:14:06;11.30;;;8.05;;
57217;SDS011;43078;52.972;6.482;2023-06-19T07:16:31;12.77;;;8.68;;
57217;SDS011;43078;52.972;6.482;2023-06-19T07:18:57;10.98;;;9.25;;
57217;SDS011;43078;52.972;6.482;2023-06-19T07:21:22;13.30;;;9.85;;
57217;SDS011;43078;52.972;6.482;2023-06-19T07:23:48;14.32;;;8.98;;
57217;SDS011;43078;52.972;6.482;2023-06-19T07:26:14;13.60;;;9.73;;
57217;SDS011;43078;52.972;6.482;2023-06-19T07:28:40;14.02;;;8.77;;
57217;SDS011;43078;52.972;6.482;2023-06-19T07:31:06;13.40;;;8.75;;
57217;SDS011;43078;52.972;6.482;2023-06-19T07:33:33;13.85;;;9.00;;
57217;SDS011;43078;52.972;6.482;2023-06-19T07:38:28;10.82;;;8.43;;
57217;SDS011;43078;52.972;6.482;2023-06-19T07:40:54;11.80;;;7.82;;
57217;SDS011;43078;52.972;6.482;2023-06-19T07:43:19;10.00;;;7.50;;
57217;SDS011;43078;52.972;6.482;2023-06-19T07:45:47;10.27;;;6.95;;
57217;SDS011;43078;52.972;6.482;2023-06-19T07:48:13;10.88;;;6.72;;
57217;SDS011;43078;52.972;6.482;2023-06-19T07:50:39;10.30;;;6.68;;
57217;SDS011;43078;52.972;6.482;2023-06-19T07:53:04;10.98;;;6.68;;
57217;SDS011;43078;52.972;6.482;2023-06-19T07:55:30;12.85;;;6.55;;
57217;SDS011;43078;52.972;6.482;2023-06-19T07:57:56;10.75;;;6.60;;
57217;SDS011;43078;52.972;6.482;2023-06-19T08:00:24;10.05;;;5.88;;
57217;SDS011;43078;52.972;6.482;2023-06-19T08:02:50;7.18;;;5.35;;
57217;SDS011;43078;52.972;6.482;2023-06-19T08:05:15;9.82;;;5.50;;
57217;SDS011;43078;52.972;6.482;2023-06-19T08:07:41;8.27;;;4.82;;
57217;SDS011;43078;52.972;6.482;2023-06-19T08:10:07;8.02;;;4.72;;
57217;SDS011;43078;52.972;6.482;2023-06-19T08:12:33;7.95;;;5.00;;
57217;SDS011;43078;52.972;6.482;2023-06-19T08:15:01;8.73;;;5.03;;
57217;SDS011;43078;52.972;6.482;2023-06-19T08:17:27;7.35;;;4.90;;
57217;SDS011;43078;52.972;6.482;2023-06-19T08:19:53;7.22;;;4.95;;
57217;SDS011;43078;52.972;6.482;2023-06-19T08:22:19;10.07;;;4.95;;
57217;SDS011;43078;52.972;6.482;2023-06-19T08:24:45;7.28;;;4.40;;
57217;SDS011;43078;52.972;6.482;2023-06-19T08:27:10;8.85;;;4.60;;
57217;SDS011;43078;52.972;6.482;2023-06-19T08:29:36;8.20;;;4.63;;
57217;SDS011;43078;52.972;6.482;2023-06-19T08:32:01;8.75;;;4.65;;
57217;SDS011;43078;52.972;6.482;2023-06-19T08:34:27;7.65;;;4.78;;
57217;SDS011;43078;52.972;6.482;2023-06-19T08:36:53;6.93;;;4.80;;
57217;SDS011;43078;52.972;6.482;2023-06-19T08:39:19;6.38;;;4.75;;
57217;SDS011;43078;52.972;6.482;2023-06-19T08:41:47;8.80;;;5.13;;
57217;SDS011;43078;52.972;6.482;2023-06-19T08:44:12;7.25;;;4.68;;
57217;SDS011;43078;52.972;6.482;2023-06-19T08:46:38;7.88;;;4.90;;
57217;SDS011;43078;52.972;6.482;2023-06-19T08:49:05;6.82;;;4.13;;
57217;SDS011;43078;52.972;6.482;2023-06-19T08:51:35;9.82;;;5.40;;
57217;SDS011;43078;52.972;6.482;2023-06-19T08:54:05;6.97;;;5.03;;
57217;SDS011;43078;52.972;6.482;2023-06-19T08:56:32;8.13;;;5.47;;
57217;SDS011;43078;52.972;6.482;2023-06-19T08:59:12;7.63;;;4.82;;
57217;SDS011;43078;52.972;6.482;2023-06-19T09:01:39;7.57;;;4.60;;
57217;SDS011;43078;52.972;6.482;2023-06-19T09:04:09;9.63;;;5.35;;
57217;SDS011;43078;52.972;6.482;2023-06-19T09:06:44;7.45;;;5.38;;
57217;SDS011;43078;52.972;6.482;2023-06-19T09:09:12;8.65;;;5.88;;
57217;SDS011;43078;52.972;6.482;2023-06-19T09:11:40;8.77;;;5.50;;
57217;SDS011;43078;52.972;6.482;2023-06-19T09:14:08;8.43;;;5.55;;
57217;SDS011;43078;52.972;6.482;2023-06-19T09:16:41;7.05;;;5.10;;
57217;SDS011;43078;52.972;6.482;2023-06-19T09:19:07;9.82;;;6.45;;
57217;SDS011;43078;52.972;6.482;2023-06-19T09:21:35;9.45;;;6.13;;
57217;SDS011;43078;52.972;6.482;2023-06-19T09:24:03;12.75;;;6.13;;
57217;SDS011;43078;52.972;6.482;2023-06-19T09:26:33;13.30;;;6.72;;
57217;SDS011;43078;52.972;6.482;2023-06-19T09:29:09;10.23;;;7.15;;
57217;SDS011;43078;52.972;6.482;2023-06-19T09:31:38;10.60;;;7.10;;
57217;SDS011;43078;52.972;6.482;2023-06-19T09:34:06;12.60;;;7.57;;
57217;SDS011;43078;52.972;6.482;2023-06-19T09:36:32;11.30;;;8.00;;
57217;SDS011;43078;52.972;6.482;2023-06-19T09:38:59;10.93;;;7.00;;
57217;SDS011;43078;52.972;6.482;2023-06-19T09:41:26;11.50;;;6.82;;
57217;SDS011;43078;52.972;6.482;2023-06-19T09:43:54;10.45;;;7.38;;
57217;SDS011;43078;52.972;6.482;2023-06-19T09:46:26;12.20;;;7.53;;
57217;SDS011;43078;52.972;6.482;2023-06-19T09:48:55;11.65;;;7.85;;
57217;SDS011;43078;52.972;6.482;2023-06-19T09:51:30;11.82;;;7.00;;
57217;SDS011;43078;52.972;6.482;2023-06-19T09:53:57;13.13;;;7.40;;
57217;SDS011;43078;52.972;6.482;2023-06-19T09:56:26;9.50;;;6.82;;
57217;SDS011;43078;52.972;6.482;2023-06-19T09:58:53;11.35;;;7.68;;
57217;SDS011;43078;52.972;6.482;2023-06-19T10:01:24;9.80;;;7.60;;
57217;SDS011;43078;52.972;6.482;2023-06-19T10:04:05;11.63;;;7.82;;
57217;SDS011;43078;52.972;6.482;2023-06-19T10:06:32;10.90;;;7.43;;
57217;SDS011;43078;52.972;6.482;2023-06-19T10:09:07;12.68;;;8.15;;
57217;SDS011;43078;52.972;6.482;2023-06-19T10:11:44;11.90;;;8.13;;
57217;SDS011;43078;52.972;6.482;2023-06-19T10:14:19;13.25;;;9.27;;
57217;SDS011;43078;52.972;6.482;2023-06-19T10:16:49;17.58;;;10.88;;
57217;SDS011;43078;52.972;6.482;2023-06-19T10:19:15;16.80;;;10.32;;
57217;SDS011;43078;52.972;6.482;2023-06-19T10:21:49;13.13;;;9.68;;
57217;SDS011;43078;52.972;6.482;2023-06-19T10:24:17;12.88;;;9.77;;
57217;SDS011;43078;52.972;6.482;2023-06-19T10:26:55;15.65;;;10.35;;
57217;SDS011;43078;52.972;6.482;2023-06-19T10:29:24;12.85;;;9.65;;
57217;SDS011;43078;52.972;6.482;2023-06-19T10:31:51;12.25;;;9.60;;
57217;SDS011;43078;52.972;6.482;2023-06-19T10:34:17;14.80;;;9.38;;
57217;SDS011;43078;52.972;6.482;2023-06-19T10:36:43;13.40;;;9.52;;
57217;SDS011;43078;52.972;6.482;2023-06-19T10:39:09;12.93;;;9.43;;
57217;SDS011;43078;52.972;6.482;2023-06-19T10:41:35;13.75;;;8.55;;
57217;SDS011;43078;52.972;6.482;2023-06-19T10:44:05;10.23;;;7.90;;
57217;SDS011;43078;52.972;6.482;2023-06-19T10:46:37;11.98;;;8.60;;
57217;SDS011;43078;52.972;6.482;2023-06-19T10:49:03;9.95;;;8.25;;
57217;SDS011;43078;52.972;6.482;2023-06-19T10:51:33;10.68;;;7.65;;
57217;SDS011;43078;52.972;6.482;2023-06-19T10:54:00;10.25;;;7.68;;
57217;SDS011;43078;52.972;6.482;2023-06-19T10:56:25;12.48;;;7.43;;
57217;SDS011;43078;52.972;6.482;2023-06-19T10:59:01;12.00;;;7.63;;
57217;SDS011;43078;52.972;6.482;2023-06-19T11:01:32;9.77;;;7.15;;
57217;SDS011;43078;52.972;6.482;2023-06-19T11:03:59;11.45;;;7.32;;
57217;SDS011;43078;52.972;6.482;2023-06-19T11:06:27;11.90;;;7.00;;
57217;SDS011;43078;52.972;6.482;2023-06-19T11:08:54;9.93;;;7.03;;
57217;SDS011;43078;52.972;6.482;2023-06-19T11:11:21;14.68;;;6.85;;
57217;SDS011;43078;52.972;6.482;2023-06-19T11:13:46;10.48;;;7.05;;
57217;SDS011;43078;52.972;6.482;2023-06-19T11:16:14;10.70;;;6.70;;
57217;SDS011;43078;52.972;6.482;2023-06-19T11:18:40;12.55;;;6.75;;
57217;SDS011;43078;52.972;6.482;2023-06-19T11:21:05;11.98;;;7.55;;
57217;SDS011;43078;52.972;6.482;2023-06-19T11:23:31;9.77;;;7.03;;
57217;SDS011;43078;52.972;6.482;2023-06-19T11:26:03;12.02;;;7.43;;
57217;SDS011;43078;52.972;6.482;2023-06-19T11:30:59;15.05;;;7.70;;
57217;SDS011;43078;52.972;6.482;2023-06-19T11:33:29;11.55;;;6.93;;
57217;SDS011;43078;52.972;6.482;2023-06-19T11:35:58;11.80;;;7.07;;
57217;SDS011;43078;52.972;6.482;2023-06-19T11:38:25;10.23;;;7.25;;
57217;SDS011;43078;52.972;6.482;2023-06-19T11:40:51;9.80;;;7.43;;
57217;SDS011;43078;52.972;6.482;2023-06-19T11:43:27;11.55;;;8.02;;
57217;SDS011;43078;52.972;6.482;2023-06-19T11:46:04;12.77;;;7.55;;
57217;SDS011;43078;52.972;6.482;2023-06-19T11:48:32;10.15;;;6.60;;
57217;SDS011;43078;52.972;6.482;2023-06-19T11:51:08;13.00;;;7.15;;
57217;SDS011;43078;52.972;6.482;2023-06-19T11:53:34;8.32;;;6.38;;
57217;SDS011;43078;52.972;6.482;2023-06-19T11:56:00;11.48;;;7.78;;
57217;SDS011;43078;52.972;6.482;2023-06-19T11:58:25;12.02;;;7.78;;
57217;SDS011;43078;52.972;6.482;2023-06-19T12:00:52;11.23;;;7.70;;
57217;SDS011;43078;52.972;6.482;2023-06-19T12:03:18;13.02;;;8.05;;
57217;SDS011;43078;52.972;6.482;2023-06-19T12:05:44;17.15;;;8.00;;
57217;SDS011;43078;52.972;6.482;2023-06-19T12:08:09;12.73;;;8.30;;
57217;SDS011;43078;52.972;6.482;2023-06-19T12:10:35;9.65;;;7.85;;
57217;SDS011;43078;52.972;6.482;2023-06-19T12:13:01;13.70;;;8.80;;
57217;SDS011;43078;52.972;6.482;2023-06-19T12:15:26;11.02;;;8.40;;
57217;SDS011;43078;52.972;6.482;2023-06-19T12:17:52;14.10;;;7.93;;
57217;SDS011;43078;52.972;6.482;2023-06-19T12:20:18;11.40;;;7.80;;
57217;SDS011;43078;52.972;6.482;2023-06-19T12:22:44;13.20;;;8.05;;
57217;SDS011;43078;52.972;6.482;2023-06-19T12:25:10;12.20;;;7.93;;
57217;SDS011;43078;52.972;6.482;2023-06-19T12:27:37;13.35;;;8.40;;
57217;SDS011;43078;52.972;6.482;2023-06-19T12:30:03;12.15;;;7.90;;
57217;SDS011;43078;52.972;6.482;2023-06-19T12:32:29;10.70;;;7.68;;
57217;SDS011;43078;52.972;6.482;2023-06-19T12:34:55;12.00;;;7.75;;
57217;SDS011;43078;52.972;6.482;2023-06-19T12:37:20;9.98;;;7.20;;
57217;SDS011;43078;52.972;6.482;2023-06-19T12:39:47;12.57;;;7.63;;
57217;SDS011;43078;52.972;6.482;2023-06-19T12:42:13;10.35;;;7.25;;
57217;SDS011;43078;52.972;6.482;2023-06-19T12:44:39;10.63;;;8.07;;
57217;SDS011;43078;52.972;6.482;2023-06-19T12:47:05;12.43;;;7.30;;
57217;SDS011;43078;52.972;6.482;2023-06-19T12:49:31;13.88;;;7.35;;
57217;SDS011;43078;52.972;6.482;2023-06-19T12:51:57;9.93;;;7.35;;
57217;SDS011;43078;52.972;6.482;2023-06-19T12:54:23;9.10;;;7.32;;
57217;SDS011;43078;52.972;6.482;2023-06-19T12:56:49;11.60;;;7.57;;
57217;SDS011;43078;52.972;6.482;2023-06-19T12:59:15;11.32;;;7.75;;
57217;SDS011;43078;52.972;6.482;2023-06-19T13:01:41;10.60;;;7.22;;
57217;SDS011;43078;52.972;6.482;2023-06-19T13:04:07;11.75;;;8.30;;
57217;SDS011;43078;52.972;6.482;2023-06-19T13:06:33;13.65;;;7.40;;
57217;SDS011;43078;52.972;6.482;2023-06-19T13:09:01;9.80;;;7.05;;
57217;SDS011;43078;52.972;6.482;2023-06-19T13:11:27;9.48;;;6.82;;
57217;SDS011;43078;52.972;6.482;2023-06-19T13:13:52;8.98;;;6.90;;
57217;SDS011;43078;52.972;6.482;2023-06-19T13:16:18;10.85;;;7.18;;
57217;SDS011;43078;52.972;6.482;2023-06-19T13:18:44;9.32;;;6.53;;
57217;SDS011;43078;52.972;6.482;2023-06-19T13:21:10;10.25;;;6.65;;
57217;SDS011;43078;52.972;6.482;2023-06-19T13:23:36;10.88;;;6.90;;
57217;SDS011;43078;52.972;6.482;2023-06-19T13:26:02;10.68;;;7.68;;
57217;SDS011;43078;52.972;6.482;2023-06-19T13:28:27;9.52;;;6.30;;
57217;SDS011;43078;52.972;6.482;2023-06-19T13:30:53;9.32;;;6.00;;
57217;SDS011;43078;52.972;6.482;2023-06-19T13:33:19;10.57;;;5.75;;
57217;SDS011;43078;52.972;6.482;2023-06-19T13:35:44;11.57;;;5.72;;
57217;SDS011;43078;52.972;6.482;2023-06-19T13:38:10;11.55;;;6.05;;
57217;SDS011;43078;52.972;6.482;2023-06-19T13:40:36;10.45;;;6.10;;
57217;SDS011;43078;52.972;6.482;2023-06-19T13:43:02;9.38;;;6.32;;
57217;SDS011;43078;52.972;6.482;2023-06-19T13:45:28;13.85;;;5.88;;
57217;SDS011;43078;52.972;6.482;2023-06-19T13:47:55;10.82;;;6.65;;
57217;SDS011;43078;52.972;6.482;2023-06-19T13:50:22;9.40;;;6.13;;
57217;SDS011;43078;52.972;6.482;2023-06-19T13:52:48;8.13;;;4.90;;
57217;SDS011;43078;52.972;6.482;2023-06-19T13:55:14;9.90;;;5.47;;
57217;SDS011;43078;52.972;6.482;2023-06-19T13:57:41;9.75;;;6.32;;
57217;SDS011;43078;52.972;6.482;2023-06-19T14:00:07;8.68;;;5.43;;
57217;SDS011;43078;52.972;6.482;2023-06-19T14:02:35;10.07;;;6.18;;
57217;SDS011;43078;52.972;6.482;2023-06-19T14:05:03;10.68;;;6.90;;
57217;SDS011;43078;52.972;6.482;2023-06-19T14:07:30;8.30;;;5.70;;
57217;SDS011;43078;52.972;6.482;2023-06-19T14:09:56;10.05;;;5.15;;
57217;SDS011;43078;52.972;6.482;2023-06-19T14:12:21;9.27;;;6.28;;
57217;SDS011;43078;52.972;6.482;2023-06-19T14:14:47;12.65;;;7.20;;
57217;SDS011;43078;52.972;6.482;2023-06-19T14:17:13;11.15;;;6.30;;
57217;SDS011;43078;52.972;6.482;2023-06-19T14:19:39;10.38;;;7.20;;
57217;SDS011;43078;52.972;6.482;2023-06-19T14:22:04;10.88;;;6.22;;
57217;SDS011;43078;52.972;6.482;2023-06-19T14:24:30;9.77;;;6.78;;
57217;SDS011;43078;52.972;6.482;2023-06-19T14:26:55;13.10;;;6.35;;
57217;SDS011;43078;52.972;6.482;2023-06-19T14:29:21;12.68;;;5.75;;
57217;SDS011;43078;52.972;6.482;2023-06-19T14:31:47;11.75;;;5.68;;
57217;SDS011;43078;52.972;6.482;2023-06-19T14:34:12;9.05;;;5.15;;
57217;SDS011;43078;52.972;6.482;2023-06-19T14:36:39;9.45;;;5.30;;
57217;SDS011;43078;52.972;6.482;2023-06-19T14:39:05;9.00;;;5.80;;
57217;SDS011;43078;52.972;6.482;2023-06-19T14:41:30;11.98;;;6.40;;
57217;SDS011;43078;52.972;6.482;2023-06-19T14:43:56;11.63;;;5.78;;
57217;SDS011;43078;52.972;6.482;2023-06-19T14:46:21;8.10;;;5.18;;